createdAt,value
2023-05-05T00:01:04.432Z,100462.13
2023-05-05T00:03:34.556Z,100447.59
2023-05-05T00:06:02.662Z,100448.81
2023-05-05T00:08:30.902Z,100450.72
2023-05-05T00:11:00.502Z,100455.06
2023-05-05T00:13:28.734Z,100454.31
2023-05-05T00:15:56.820Z,100460.44
2023-05-05T00:18:25.106Z,100454.81
2023-05-05T00:20:53.294Z,100456.78
2023-05-05T00:23:21.668Z,100458.41
2023-05-05T00:25:49.661Z,100457.25
2023-05-05T00:28:19.448Z,100455.50
2023-05-05T00:30:47.554Z,100457.81
2023-05-05T00:33:15.999Z,100453.22
2023-05-05T00:35:44.291Z,100463.78
2023-05-05T00:38:12.576Z,100473.69
2023-05-05T00:40:40.754Z,100463.41
2023-05-05T00:43:09.055Z,100462.09
2023-05-05T00:45:42.616Z,100456.84
2023-05-05T00:48:11.119Z,100464.69
2023-05-05T00:50:39.480Z,100458.28
2023-05-05T00:53:07.937Z,100446.59
2023-05-05T00:55:36.583Z,100449.50
2023-05-05T00:58:05.039Z,100450.34
2023-05-05T01:00:34.169Z,100447.84
2023-05-05T01:03:05.161Z,100442.47
2023-05-05T01:05:39.151Z,100432.06
2023-05-05T01:08:28.544Z,100431.38
2023-05-05T01:11:02.989Z,100426.41
2023-05-05T01:13:37.227Z,100435.41
2023-05-05T01:16:09.328Z,100436.69
2023-05-05T01:18:43.207Z,100418.88
2023-05-05T01:21:15.306Z,100437.09
2023-05-05T01:24:02.044Z,100430.13
2023-05-05T01:26:44.405Z,100439.19
2023-05-05T01:29:28.409Z,100434.69
2023-05-05T01:31:58.694Z,100431.25
2023-05-05T01:34:29.153Z,100438.94
2023-05-05T01:37:07.328Z,100435.41
2023-05-05T01:39:36.222Z,100445.13
2023-05-05T01:42:07.760Z,100452.16
2023-05-05T01:44:37.892Z,100452.56
2023-05-05T01:47:07.478Z,100451.16
2023-05-05T01:49:37.226Z,100456.69
2023-05-05T01:52:06.159Z,100466.88
2023-05-05T01:54:35.636Z,100472.03
2023-05-05T01:57:04.696Z,100466.53
2023-05-05T01:59:33.390Z,100470.94
2023-05-05T02:02:03.238Z,100465.59
2023-05-05T02:04:33.928Z,100469.69
2023-05-05T02:07:02.906Z,100474.31
2023-05-05T02:09:32.088Z,100485.94
2023-05-05T02:12:00.576Z,100483.31
2023-05-05T02:14:30.661Z,100496.16
2023-05-05T02:16:59.272Z,100495.16
2023-05-05T02:19:30.944Z,100507.81
2023-05-05T02:22:00.381Z,100495.59
2023-05-05T02:24:30.815Z,100492.31
2023-05-05T02:26:59.336Z,100502.94
2023-05-05T02:29:32.794Z,100498.09
2023-05-05T02:32:04.277Z,100506.53
2023-05-05T02:34:36.075Z,100508.84
2023-05-05T02:37:09.978Z,100505.28
2023-05-05T02:39:44.346Z,100510.53
2023-05-05T02:42:19.690Z,100503.53
2023-05-05T02:44:50.456Z,100496.00
2023-05-05T02:47:18.666Z,100495.91
2023-05-05T02:49:46.919Z,100495.81
2023-05-05T02:52:16.338Z,100498.97
2023-05-05T02:54:46.076Z,100514.50
2023-05-05T02:57:20.485Z,100504.88
2023-05-05T03:00:00.471Z,100505.34
2023-05-05T03:02:34.433Z,100504.16
2023-05-05T03:05:07.486Z,100506.94
2023-05-05T03:07:44.232Z,100503.69
2023-05-05T03:10:15.112Z,100511.44
2023-05-05T03:12:50.888Z,100508.94
2023-05-05T03:15:27.298Z,100499.44
2023-05-05T03:17:57.164Z,100497.22
2023-05-05T03:20:26.253Z,100498.81
2023-05-05T03:22:57.224Z,100502.00
2023-05-05T03:25:43.912Z,100500.00
2023-05-05T03:28:16.126Z,100499.38
2023-05-05T03:30:44.758Z,100512.22
2023-05-05T03:33:14.337Z,100509.59
2023-05-05T03:35:43.828Z,100515.25
2023-05-05T03:38:15.373Z,100514.72
2023-05-05T03:40:45.049Z,100515.28
2023-05-05T03:43:17.213Z,100515.44
2023-05-05T03:45:45.726Z,100508.41
2023-05-05T03:48:14.325Z,100517.00
2023-05-05T03:50:45.747Z,100512.91
2023-05-05T03:53:16.632Z,100513.94
2023-05-05T03:55:47.541Z,100516.81
2023-05-05T03:58:16.630Z,100518.84
2023-05-05T04:00:44.995Z,100524.69
2023-05-05T04:03:13.495Z,100527.25
2023-05-05T04:05:41.974Z,100537.97
2023-05-05T04:08:10.625Z,100529.44
2023-05-05T04:10:40.358Z,100523.16
2023-05-05T04:13:09.374Z,100536.47
2023-05-05T04:15:38.580Z,100527.84
2023-05-05T04:18:07.118Z,100524.59
2023-05-05T04:20:35.998Z,100525.03
2023-05-05T04:23:04.339Z,100523.38
2023-05-05T04:25:32.731Z,100522.81
2023-05-05T04:28:02.240Z,100525.22
2023-05-05T04:30:30.686Z,100527.78
2023-05-05T04:32:58.823Z,100541.63
2023-05-05T04:35:27.647Z,100547.53
2023-05-05T04:37:56.071Z,100552.94
2023-05-05T04:40:26.153Z,100552.50
2023-05-05T04:42:55.088Z,100559.13
2023-05-05T04:45:25.045Z,100553.31
2023-05-05T04:47:53.185Z,100557.84
2023-05-05T04:50:22.725Z,100560.63
2023-05-05T04:52:52.652Z,100556.66
2023-05-05T04:55:21.524Z,100557.44
2023-05-05T04:57:49.585Z,100557.59
2023-05-05T05:00:18.344Z,100555.94
2023-05-05T05:02:47.800Z,100550.97
2023-05-05T05:05:16.678Z,100567.44
2023-05-05T05:07:45.823Z,100562.00
2023-05-05T05:10:14.136Z,100572.09
2023-05-05T05:12:42.225Z,100571.34
2023-05-05T05:15:11.608Z,100581.78
2023-05-05T05:17:39.672Z,100582.97
2023-05-05T05:20:10.580Z,100582.94
2023-05-05T05:22:39.241Z,100586.19
2023-05-05T05:25:11.779Z,100578.16
2023-05-05T05:27:41.603Z,100571.25
2023-05-05T05:30:11.605Z,100581.56
2023-05-05T05:32:39.957Z,100579.31
2023-05-05T05:35:10.242Z,100576.22
2023-05-05T05:37:38.779Z,100581.25
2023-05-05T05:40:08.814Z,100580.03
2023-05-05T05:42:38.227Z,100586.38
2023-05-05T05:45:07.945Z,100592.63
2023-05-05T05:47:36.469Z,100581.41
2023-05-05T05:50:07.019Z,100589.63
2023-05-05T05:52:37.209Z,100580.81
2023-05-05T05:55:08.889Z,100588.56
2023-05-05T05:57:37.282Z,100586.75
2023-05-05T06:00:09.048Z,100589.72
2023-05-05T06:02:40.124Z,100591.84
2023-05-05T06:05:13.026Z,100594.31
2023-05-05T06:07:44.421Z,100601.41
2023-05-05T06:10:26.514Z,100604.66
2023-05-05T06:13:01.782Z,100607.56
2023-05-05T06:15:31.035Z,100612.88
2023-05-05T06:17:59.917Z,100612.88
2023-05-05T06:20:28.628Z,100604.81
2023-05-05T06:22:58.442Z,100615.16
2023-05-05T06:25:28.562Z,100622.13
2023-05-05T06:27:56.744Z,100614.41
2023-05-05T06:30:26.038Z,100606.31
2023-05-05T06:32:54.864Z,100606.63
2023-05-05T06:35:23.243Z,100612.22
2023-05-05T06:37:51.377Z,100613.84
2023-05-05T06:40:21.026Z,100621.84
2023-05-05T06:42:49.107Z,100625.81
2023-05-05T06:45:23.220Z,100619.50
2023-05-05T06:47:52.395Z,100621.16
2023-05-05T06:50:20.768Z,100619.06
2023-05-05T06:52:48.927Z,100617.34
2023-05-05T06:55:17.794Z,100619.28
2023-05-05T06:57:47.197Z,100620.06
2023-05-05T07:00:17.273Z,100612.97
2023-05-05T07:02:47.416Z,100617.78
2023-05-05T07:05:15.830Z,100627.31
2023-05-05T07:07:52.330Z,100621.56
2023-05-05T07:10:21.889Z,100625.75
2023-05-05T07:12:51.511Z,100618.00
2023-05-05T07:15:28.764Z,100619.06
2023-05-05T07:17:58.452Z,100620.19
2023-05-05T07:20:27.074Z,100614.44
2023-05-05T07:22:55.176Z,100623.97
2023-05-05T07:25:23.465Z,100621.38
2023-05-05T07:27:52.888Z,100627.34
2023-05-05T07:30:21.529Z,100624.47
2023-05-05T07:32:51.328Z,100624.97
2023-05-05T07:35:19.887Z,100625.50
2023-05-05T07:37:48.074Z,100633.03
2023-05-05T07:40:16.510Z,100624.06
2023-05-05T07:42:44.606Z,100623.94
2023-05-05T07:45:14.360Z,100631.38
2023-05-05T07:47:42.629Z,100632.47
2023-05-05T07:50:11.731Z,100628.47
2023-05-05T07:55:11.265Z,100620.53
2023-05-05T07:57:39.531Z,100621.88
2023-05-05T08:00:09.300Z,100609.69
2023-05-05T08:02:42.271Z,100615.06
2023-05-05T08:05:12.442Z,100624.13
2023-05-05T08:07:41.859Z,100624.00
2023-05-05T08:10:11.866Z,100616.59
2023-05-05T08:12:40.424Z,100611.84
2023-05-05T08:15:09.627Z,100610.53
2023-05-05T08:17:49.724Z,100613.28
2023-05-05T08:20:18.624Z,100621.00
2023-05-05T08:22:47.264Z,100605.16
2023-05-05T08:25:15.711Z,100608.66
2023-05-05T08:27:44.441Z,100598.53
2023-05-05T08:30:13.534Z,100604.19
2023-05-05T08:32:42.331Z,100597.03
2023-05-05T08:35:12.697Z,100600.38
2023-05-05T08:37:40.994Z,100599.69
2023-05-05T08:40:12.763Z,100597.75
2023-05-05T08:42:41.020Z,100602.16
2023-05-05T08:45:11.337Z,100595.19
2023-05-05T08:47:40.249Z,100600.75
2023-05-05T08:50:12.709Z,100598.72
2023-05-05T08:52:44.134Z,100597.56
2023-05-05T08:55:20.570Z,100597.97
2023-05-05T08:57:53.782Z,100608.03
2023-05-05T09:00:26.414Z,100600.75
2023-05-05T09:02:55.818Z,100596.94
2023-05-05T09:05:25.860Z,100593.31
2023-05-05T09:07:55.226Z,100603.28
2023-05-05T09:10:23.565Z,100603.31
2023-05-05T09:12:51.964Z,100593.00
2023-05-05T09:15:20.436Z,100597.72
2023-05-05T09:17:48.738Z,100589.84
2023-05-05T09:20:17.154Z,100583.50
2023-05-05T09:22:47.773Z,100582.28
2023-05-05T09:25:17.167Z,100578.03
2023-05-05T09:27:46.831Z,100574.06
2023-05-05T09:30:18.836Z,100573.59
2023-05-05T09:32:49.012Z,100571.72
2023-05-05T09:35:18.090Z,100562.03
2023-05-05T09:37:47.497Z,100572.97
2023-05-05T09:40:17.565Z,100579.63
2023-05-05T09:42:45.727Z,100564.06
2023-05-05T09:45:27.273Z,100563.56
2023-05-05T09:47:59.597Z,100563.91
2023-05-05T09:50:30.730Z,100565.31
2023-05-05T09:53:01.946Z,100565.44
2023-05-05T09:55:31.939Z,100554.66
2023-05-05T09:58:18.786Z,100562.75
2023-05-05T10:00:47.478Z,100552.25
2023-05-05T10:03:16.003Z,100563.03
2023-05-05T10:05:50.342Z,100561.75
2023-05-05T10:08:21.078Z,100562.19
2023-05-05T10:10:52.431Z,100556.31
2023-05-05T10:13:23.381Z,100566.47
2023-05-05T10:15:53.086Z,100571.13
2023-05-05T10:18:23.455Z,100553.22
2023-05-05T10:20:57.159Z,100555.13
2023-05-05T10:23:34.284Z,100557.09
2023-05-05T10:26:04.499Z,100549.03
2023-05-05T10:28:34.275Z,100548.56
2023-05-05T10:31:12.781Z,100553.59
2023-05-05T10:33:49.236Z,100547.47
2023-05-05T10:36:17.947Z,100542.00
2023-05-05T10:38:47.539Z,100551.66
2023-05-05T10:41:16.538Z,100555.41
2023-05-05T10:43:44.971Z,100546.22
2023-05-05T10:46:13.698Z,100535.00
2023-05-05T10:48:46.773Z,100544.63
2023-05-05T10:51:39.402Z,100530.06
2023-05-05T10:54:15.421Z,100534.63
2023-05-05T10:56:44.066Z,100537.50
2023-05-05T10:59:40.505Z,100534.94
2023-05-05T11:02:25.640Z,100530.66
2023-05-05T11:05:17.506Z,100527.81
2023-05-05T11:07:46.665Z,100529.59
2023-05-05T11:10:17.129Z,100523.09
2023-05-05T11:13:20.682Z,100522.63
2023-05-05T11:15:50.238Z,100510.81
2023-05-05T11:18:33.847Z,100517.06
2023-05-05T11:21:18.738Z,100507.03
2023-05-05T11:23:49.308Z,100509.09
2023-05-05T11:26:20.070Z,100500.19
2023-05-05T11:29:02.370Z,100494.34
2023-05-05T11:31:31.742Z,100505.44
2023-05-05T11:34:28.246Z,100497.97
2023-05-05T11:37:02.571Z,100495.66
2023-05-05T11:39:38.427Z,100492.06
2023-05-05T11:42:24.356Z,100487.13
2023-05-05T11:44:53.165Z,100485.50
2023-05-05T11:47:29.358Z,100489.81
2023-05-05T11:49:58.045Z,100486.91
2023-05-05T11:52:27.783Z,100480.66
2023-05-05T11:55:01.435Z,100482.19
2023-05-05T11:57:31.494Z,100481.06
2023-05-05T12:00:02.204Z,100484.56
2023-05-05T12:02:34.723Z,100472.66
2023-05-05T12:05:03.570Z,100486.00
2023-05-05T12:07:33.279Z,100470.25
2023-05-05T12:10:02.746Z,100472.00
2023-05-05T12:12:39.992Z,100465.94
2023-05-05T12:15:09.340Z,100465.50
2023-05-05T12:17:40.715Z,100472.47
2023-05-05T12:20:11.254Z,100462.53
2023-05-05T12:22:40.062Z,100461.72
2023-05-05T12:25:09.308Z,100465.22
2023-05-05T12:27:38.974Z,100461.59
2023-05-05T12:30:15.987Z,100457.78
2023-05-05T12:32:44.455Z,100450.31
2023-05-05T12:35:13.799Z,100461.34
2023-05-05T12:37:42.121Z,100447.13
2023-05-05T12:40:48.380Z,100452.72
2023-05-05T12:43:26.538Z,100450.09
2023-05-05T12:46:02.525Z,100455.38
2023-05-05T12:48:30.891Z,100445.69
2023-05-05T12:51:27.083Z,100440.63
2023-05-05T12:54:13.213Z,100437.72
2023-05-05T12:56:44.332Z,100430.06
2023-05-05T12:59:13.925Z,100423.94
2023-05-05T13:01:50.192Z,100415.53
2023-05-05T13:04:19.289Z,100426.06
2023-05-05T13:06:49.119Z,100410.34
2023-05-05T13:09:24.098Z,100408.13
2023-05-05T13:11:54.573Z,100400.59
2023-05-05T13:14:22.902Z,100395.13
2023-05-05T13:16:51.183Z,100395.66
2023-05-05T13:19:19.284Z,100393.34
2023-05-05T13:21:47.546Z,100389.69
2023-05-05T13:26:46.922Z,100391.34
2023-05-05T13:29:16.390Z,100393.69
2023-05-05T13:31:45.388Z,100383.25
2023-05-05T13:34:13.462Z,100382.19
2023-05-05T13:36:41.819Z,100375.31
2023-05-05T13:39:11.171Z,100373.09
2023-05-05T13:41:39.555Z,100379.41
2023-05-05T13:44:07.556Z,100379.16
2023-05-05T13:46:37.373Z,100373.34
2023-05-05T13:49:05.616Z,100374.91
2023-05-05T13:51:34.715Z,100370.56
2023-05-05T13:54:03.801Z,100382.16
2023-05-05T13:56:32.183Z,100383.41
2023-05-05T13:59:00.843Z,100379.91
2023-05-05T14:01:29.502Z,100370.97
2023-05-05T14:03:59.036Z,100375.16
2023-05-05T14:06:27.671Z,100374.38
2023-05-05T14:08:55.830Z,100359.16
2023-05-05T14:11:24.281Z,100361.38
2023-05-05T14:13:52.703Z,100356.00
2023-05-05T14:16:21.144Z,100349.69
2023-05-05T14:18:49.269Z,100347.19
2023-05-05T14:21:18.948Z,100353.84
2023-05-05T14:23:47.045Z,100347.97
2023-05-05T14:26:15.407Z,100346.09
2023-05-05T14:28:43.595Z,100343.69
2023-05-05T14:31:12.152Z,100346.75
2023-05-05T14:33:40.205Z,100344.72
2023-05-05T14:36:09.233Z,100344.00
2023-05-05T14:38:38.802Z,100349.50
2023-05-05T14:41:07.072Z,100347.56
2023-05-05T14:43:36.718Z,100352.63
2023-05-05T14:46:07.110Z,100351.78
2023-05-05T14:48:35.497Z,100347.69
2023-05-05T14:51:04.632Z,100348.47
2023-05-05T14:53:32.779Z,100345.09
2023-05-05T14:56:03.112Z,100342.56
2023-05-05T14:58:31.252Z,100339.84
2023-05-05T15:01:00.424Z,100346.91
2023-05-05T15:03:28.713Z,100337.78
2023-05-05T15:05:57.130Z,100328.56
2023-05-05T15:08:25.315Z,100339.44
2023-05-05T15:10:53.582Z,100326.81
2023-05-05T15:13:23.085Z,100335.78
2023-05-05T15:15:51.648Z,100331.47
2023-05-05T15:18:20.007Z,100336.88
2023-05-05T15:20:48.344Z,100341.81
2023-05-05T15:23:16.405Z,100345.00
2023-05-05T15:25:45.380Z,100343.19
2023-05-05T15:28:13.461Z,100340.88
2023-05-05T15:30:43.089Z,100342.97
2023-05-05T15:33:11.784Z,100346.44
2023-05-05T15:35:40.084Z,100346.69
2023-05-05T15:38:08.247Z,100346.16
2023-05-05T15:40:36.754Z,100355.59
2023-05-05T15:43:04.821Z,100349.25
2023-05-05T15:45:33.445Z,100362.31
2023-05-05T15:48:02.810Z,100376.50
2023-05-05T15:50:31.175Z,100384.06
2023-05-05T15:52:59.581Z,100390.94
2023-05-05T15:55:28.272Z,100395.31
2023-05-05T15:57:56.543Z,100397.63
2023-05-05T16:00:25.594Z,100399.88
2023-05-05T16:02:54.156Z,100409.88
2023-05-05T16:05:23.845Z,100437.63
2023-05-05T16:07:53.520Z,100469.75
2023-05-05T16:10:21.887Z,100499.09
2023-05-05T16:12:50.074Z,100499.31
2023-05-05T16:15:18.491Z,100501.88
2023-05-05T16:17:46.870Z,100503.72
2023-05-05T16:20:15.191Z,100509.84
2023-05-05T16:22:44.692Z,100514.13
2023-05-05T16:25:13.105Z,100515.97
2023-05-05T16:27:41.153Z,100511.41
2023-05-05T16:30:12.699Z,100494.69
2023-05-05T16:32:40.793Z,100497.03
2023-05-05T16:35:09.672Z,100481.38
2023-05-05T16:37:37.928Z,100485.16
2023-05-05T16:40:09.332Z,100483.94
2023-05-05T16:42:37.513Z,100486.97
2023-05-05T16:45:07.807Z,100488.81
2023-05-05T16:47:36.078Z,100487.59
2023-05-05T16:50:04.894Z,100481.81
2023-05-05T16:52:33.053Z,100482.00
2023-05-05T16:55:01.322Z,100478.19
2023-05-05T16:57:30.691Z,100486.38
2023-05-05T16:59:59.043Z,100486.00
2023-05-05T17:02:27.286Z,100486.25
2023-05-05T17:04:55.697Z,100479.88
2023-05-05T17:07:23.821Z,100480.88
2023-05-05T17:09:52.144Z,100481.66
2023-05-05T17:12:20.194Z,100473.44
2023-05-05T17:14:49.894Z,100471.00
2023-05-05T17:17:18.152Z,100470.75
2023-05-05T17:19:46.575Z,100481.50
2023-05-05T17:22:14.631Z,100474.53
2023-05-05T17:24:43.118Z,100469.16
2023-05-05T17:27:11.230Z,100470.75
2023-05-05T17:29:41.159Z,100472.09
2023-05-05T17:32:10.943Z,100470.91
2023-05-05T17:34:39.377Z,100475.63
2023-05-05T17:37:08.949Z,100475.75
2023-05-05T17:39:37.209Z,100484.97
2023-05-05T17:42:05.613Z,100485.50
2023-05-05T17:44:34.026Z,100487.56
2023-05-05T17:47:02.726Z,100483.78
2023-05-05T17:49:32.403Z,100484.78
2023-05-05T17:52:00.442Z,100486.75
2023-05-05T17:54:28.969Z,100489.94
2023-05-05T17:56:57.326Z,100474.00
2023-05-05T17:59:25.780Z,100475.16
2023-05-05T18:01:53.912Z,100479.41
2023-05-05T18:04:22.386Z,100484.31
2023-05-05T18:06:51.882Z,100484.94
2023-05-05T18:09:20.643Z,100486.75
2023-05-05T18:11:48.745Z,100493.97
2023-05-05T18:14:18.671Z,100498.16
2023-05-05T18:16:49.753Z,100497.00
2023-05-05T18:19:18.225Z,100491.84
2023-05-05T18:21:46.303Z,100494.59
2023-05-05T18:24:20.519Z,100500.69
2023-05-05T18:26:49.895Z,100500.69
2023-05-05T18:29:18.985Z,100507.88
2023-05-05T18:31:48.428Z,100507.72
2023-05-05T18:34:17.738Z,100511.94
2023-05-05T18:36:46.463Z,100517.91
2023-05-05T18:39:16.230Z,100510.22
2023-05-05T18:41:44.366Z,100498.81
2023-05-05T18:44:12.623Z,100503.69
2023-05-05T18:46:40.942Z,100514.63
2023-05-05T18:49:09.435Z,100517.53
2023-05-05T18:51:37.571Z,100517.22
2023-05-05T18:54:06.026Z,100520.09
2023-05-05T18:56:35.487Z,100519.28
2023-05-05T18:59:04.647Z,100518.25
2023-05-05T19:01:32.872Z,100522.06
2023-05-05T19:04:01.287Z,100530.09
2023-05-05T19:06:29.340Z,100536.34
2023-05-05T19:08:57.697Z,100544.75
2023-05-05T19:11:25.801Z,100548.59
2023-05-05T19:13:55.486Z,100555.38
2023-05-05T19:16:23.801Z,100554.25
2023-05-05T19:18:54.046Z,100556.19
2023-05-05T19:21:22.263Z,100559.59
2023-05-05T19:23:50.583Z,100555.56
2023-05-05T19:26:18.746Z,100550.47
2023-05-05T19:28:47.032Z,100556.19
2023-05-05T19:31:16.462Z,100562.06
2023-05-05T19:33:45.637Z,100559.53
2023-05-05T19:36:13.850Z,100568.16
2023-05-05T19:38:44.406Z,100575.69
2023-05-05T19:41:13.922Z,100567.00
2023-05-05T19:43:46.140Z,100579.94
2023-05-05T19:46:15.693Z,100569.16
2023-05-05T19:48:45.280Z,100575.56
2023-05-05T19:51:13.586Z,100570.44
2023-05-05T19:53:42.712Z,100573.66
2023-05-05T19:56:11.507Z,100575.69
2023-05-05T19:58:55.458Z,100578.00
2023-05-05T20:01:25.970Z,100581.69
2023-05-05T20:03:55.642Z,100583.66
2023-05-05T20:06:24.307Z,100582.34
2023-05-05T20:08:54.343Z,100579.72
2023-05-05T20:11:23.249Z,100583.66
2023-05-05T20:13:51.553Z,100579.97
2023-05-05T20:16:21.528Z,100574.38
2023-05-05T20:18:51.224Z,100571.69
2023-05-05T20:21:19.669Z,100569.97
2023-05-05T20:23:47.976Z,100568.34
2023-05-05T20:26:16.224Z,100570.94
2023-05-05T20:28:45.675Z,100572.50
2023-05-05T20:31:15.002Z,100576.59
2023-05-05T20:33:43.312Z,100579.34
2023-05-05T20:36:12.951Z,100570.59
2023-05-05T20:38:40.987Z,100577.78
2023-05-05T20:41:09.271Z,100586.91
2023-05-05T20:43:37.428Z,100584.28
2023-05-05T20:46:05.767Z,100586.50
2023-05-05T20:48:33.858Z,100581.69
2023-05-05T20:51:04.396Z,100586.56
2023-05-05T20:53:33.934Z,100586.72
2023-05-05T20:56:02.195Z,100587.78
2023-05-05T20:58:30.524Z,100592.72
2023-05-05T21:00:58.954Z,100595.47
2023-05-05T21:03:27.202Z,100601.69
2023-05-05T21:05:55.676Z,100613.63
2023-05-05T21:08:23.661Z,100606.91
2023-05-05T21:10:53.254Z,100608.03
2023-05-05T21:13:21.461Z,100609.72
2023-05-05T21:15:51.355Z,100607.59
2023-05-05T21:18:19.443Z,100604.97
2023-05-05T21:20:47.742Z,100604.81
2023-05-05T21:23:15.789Z,100604.25
2023-05-05T21:25:44.019Z,100596.66
2023-05-05T21:28:13.370Z,100599.94
2023-05-05T21:30:41.778Z,100603.72
2023-05-05T21:33:09.904Z,100594.66
2023-05-05T21:35:38.321Z,100597.91
2023-05-05T21:38:06.333Z,100594.38
2023-05-05T21:40:34.799Z,100595.16
2023-05-05T21:43:02.873Z,100604.19
2023-05-05T21:45:32.548Z,100597.72
2023-05-05T21:48:00.805Z,100602.44
2023-05-05T21:50:29.611Z,100600.06
2023-05-05T21:52:57.861Z,100601.88
2023-05-05T21:55:26.237Z,100597.56
2023-05-05T21:57:54.307Z,100593.91
2023-05-05T22:00:22.637Z,100597.16
2023-05-05T22:02:52.252Z,100598.22
2023-05-05T22:05:20.694Z,100599.50
2023-05-05T22:07:48.811Z,100594.94
2023-05-05T22:10:17.389Z,100603.53
2023-05-05T22:12:45.508Z,100601.94
2023-05-05T22:15:13.788Z,100597.66
2023-05-05T22:17:41.924Z,100590.66
2023-05-05T22:20:12.484Z,100603.59
2023-05-05T22:22:40.628Z,100604.16
2023-05-05T22:25:10.095Z,100606.84
2023-05-05T22:27:38.355Z,100607.41
2023-05-05T22:30:08.268Z,100609.13
2023-05-05T22:32:36.677Z,100605.91
2023-05-05T22:35:07.225Z,100600.03
2023-05-05T22:37:37.144Z,100600.13
2023-05-05T22:40:09.499Z,100607.34
2023-05-05T22:42:37.909Z,100613.50
2023-05-05T22:45:06.982Z,100606.78
2023-05-05T22:47:35.296Z,100615.16
2023-05-05T22:50:03.777Z,100604.47
2023-05-05T22:52:31.905Z,100608.16
2023-05-05T22:55:01.558Z,100609.25
2023-05-05T22:57:29.742Z,100610.88
2023-05-05T22:59:58.095Z,100611.97
2023-05-05T23:02:27.308Z,100618.16
2023-05-05T23:04:55.858Z,100620.03
2023-05-05T23:07:23.923Z,100613.63
2023-05-05T23:09:52.206Z,100607.22
2023-05-05T23:12:21.620Z,100613.09
2023-05-05T23:14:49.984Z,100613.66
2023-05-05T23:17:18.131Z,100615.78
2023-05-05T23:19:48.439Z,100612.59
2023-05-05T23:22:16.753Z,100613.97
2023-05-05T23:24:45.134Z,100615.28
2023-05-05T23:27:13.368Z,100607.09
2023-05-05T23:29:42.973Z,100607.38
2023-05-05T23:32:10.983Z,100609.53
2023-05-05T23:34:39.388Z,100603.69
2023-05-05T23:37:07.388Z,100605.03
2023-05-05T23:39:35.698Z,100597.34
2023-05-05T23:42:03.798Z,100597.06
2023-05-05T23:44:32.021Z,100597.06
2023-05-05T23:47:01.467Z,100602.69
2023-05-05T23:49:29.772Z,100602.16
2023-05-05T23:51:58.462Z,100599.78
2023-05-05T23:54:27.054Z,100604.84
2023-05-05T23:56:55.314Z,100599.22
2023-05-05T23:59:23.622Z,100602.69
